createdAt,value
2022-12-18T00:00:09.134Z,101284.38
2022-12-18T00:02:37.345Z,101282.50
2022-12-18T00:05:06.084Z,101290.91
2022-12-18T00:07:35.554Z,101292.66
2022-12-18T00:10:03.616Z,101302.06
2022-12-18T00:12:31.716Z,101302.72
2022-12-18T00:14:59.826Z,101307.75
2022-12-18T00:17:27.930Z,101319.16
2022-12-18T00:19:56.028Z,101318.41
2022-12-18T00:22:24.147Z,101319.88
2022-12-18T00:24:53.629Z,101328.13
2022-12-18T00:27:21.714Z,101336.50
2022-12-18T00:29:51.212Z,101331.81
2022-12-18T00:32:19.580Z,101341.03
2022-12-18T00:34:47.718Z,101349.47
2022-12-18T00:37:20.038Z,101344.59
2022-12-18T00:39:50.330Z,101339.53
2022-12-18T00:42:37.520Z,101340.38
2022-12-18T00:45:12.037Z,101348.16
2022-12-18T00:47:40.958Z,101354.16
2022-12-18T00:50:10.581Z,101355.00
2022-12-18T00:52:38.659Z,101359.41
2022-12-18T00:55:07.548Z,101371.22
2022-12-18T00:57:37.118Z,101370.94
2022-12-18T01:00:06.008Z,101374.94
2022-12-18T01:02:34.287Z,101376.28
2022-12-18T01:05:02.465Z,101382.03
2022-12-18T01:07:30.544Z,101385.81
2022-12-18T01:09:58.896Z,101387.19
2022-12-18T01:12:26.999Z,101387.06
2022-12-18T01:14:56.760Z,101391.13
2022-12-18T01:17:25.017Z,101396.34
2022-12-18T01:19:53.209Z,101402.94
2022-12-18T01:22:21.315Z,101405.38
2022-12-18T01:24:49.440Z,101403.53
2022-12-18T01:27:17.709Z,101393.06
2022-12-18T01:29:45.829Z,101402.59
2022-12-18T01:32:15.274Z,101406.75
2022-12-18T01:34:43.328Z,101414.31
2022-12-18T01:37:11.783Z,101409.09
2022-12-18T01:39:40.169Z,101412.50
2022-12-18T01:42:13.824Z,101413.34
2022-12-18T01:45:04.034Z,101418.31
2022-12-18T01:47:38.690Z,101418.38
2022-12-18T01:50:11.352Z,101419.78
2022-12-18T01:52:39.529Z,101429.19
2022-12-18T01:55:09.000Z,101430.63
2022-12-18T01:57:37.978Z,101424.25
2022-12-18T02:00:11.323Z,101429.25
2022-12-18T02:02:41.664Z,101433.53
2022-12-18T02:05:11.287Z,101437.84
2022-12-18T02:07:48.974Z,101436.16
2022-12-18T02:10:22.081Z,101443.81
2022-12-18T02:12:55.153Z,101440.34
2022-12-18T02:15:30.826Z,101448.97
2022-12-18T02:18:06.260Z,101450.63
2022-12-18T02:20:38.855Z,101448.84
2022-12-18T02:23:22.352Z,101456.56
2022-12-18T02:26:07.320Z,101448.72
2022-12-18T02:28:40.839Z,101448.59
2022-12-18T02:31:13.898Z,101456.00
2022-12-18T02:33:45.561Z,101458.19
2022-12-18T02:36:16.809Z,101465.28
2022-12-18T02:38:46.858Z,101474.56
2022-12-18T02:41:18.858Z,101474.59
2022-12-18T02:43:49.934Z,101476.41
2022-12-18T02:46:31.622Z,101483.31
2022-12-18T02:49:06.848Z,101481.63
2022-12-18T02:51:42.980Z,101478.28
2022-12-18T02:54:17.303Z,101481.63
2022-12-18T02:56:53.312Z,101491.09
2022-12-18T02:59:27.998Z,101494.47
2022-12-18T03:02:01.367Z,101499.53
2022-12-18T03:04:36.663Z,101500.34
2022-12-18T03:07:09.132Z,101502.81
2022-12-18T03:09:43.230Z,101506.94
2022-12-18T03:12:25.406Z,101517.69
2022-12-18T03:14:59.235Z,101506.25
2022-12-18T03:17:30.582Z,101511.38
2022-12-18T03:20:02.233Z,101512.38
2022-12-18T03:22:33.474Z,101519.13
2022-12-18T03:25:05.104Z,101524.06
2022-12-18T03:27:39.136Z,101523.84
2022-12-18T03:30:11.365Z,101539.94
2022-12-18T03:32:45.443Z,101537.28
2022-12-18T03:35:16.161Z,101539.94
2022-12-18T03:37:44.396Z,101539.03
2022-12-18T03:40:13.122Z,101539.81
2022-12-18T03:42:51.696Z,101549.75
2022-12-18T03:45:26.267Z,101549.63
2022-12-18T03:48:02.700Z,101552.81
2022-12-18T03:50:39.519Z,101547.94
2022-12-18T03:53:19.917Z,101554.78
2022-12-18T03:55:50.197Z,101553.78
2022-12-18T03:58:23.097Z,101556.97
2022-12-18T04:00:54.478Z,101550.09
2022-12-18T04:03:26.427Z,101557.50
2022-12-18T04:05:57.540Z,101566.03
2022-12-18T04:08:27.089Z,101570.16
2022-12-18T04:10:55.303Z,101565.56
2022-12-18T04:13:31.948Z,101572.13
2022-12-18T04:16:00.055Z,101566.13
2022-12-18T04:18:28.210Z,101586.47
2022-12-18T04:20:56.601Z,101565.81
2022-12-18T04:23:24.826Z,101573.56
2022-12-18T04:25:52.884Z,101575.25
2022-12-18T04:28:20.955Z,101577.00
2022-12-18T04:30:52.594Z,101577.00
2022-12-18T04:33:21.092Z,101586.34
2022-12-18T04:35:49.164Z,101574.34
2022-12-18T04:38:17.408Z,101591.13
2022-12-18T04:40:45.842Z,101593.53
2022-12-18T04:43:14.105Z,101590.78
2022-12-18T04:45:42.243Z,101598.38
2022-12-18T04:48:11.730Z,101609.31
2022-12-18T04:50:40.348Z,101605.81
2022-12-18T04:53:09.035Z,101612.03
2022-12-18T04:55:38.107Z,101620.06
2022-12-18T04:58:06.953Z,101624.94
2022-12-18T05:00:35.178Z,101622.22
2022-12-18T05:03:04.158Z,101617.72
2022-12-18T05:05:33.702Z,101622.84
2022-12-18T05:08:02.262Z,101633.50
2022-12-18T05:10:37.548Z,101638.53
2022-12-18T05:13:06.237Z,101632.28
2022-12-18T05:15:35.632Z,101641.28
2022-12-18T05:18:04.820Z,101635.09
2022-12-18T05:20:34.298Z,101630.75
2022-12-18T05:23:02.360Z,101643.69
2022-12-18T05:25:30.471Z,101639.34
2022-12-18T05:27:59.024Z,101642.03
2022-12-18T05:30:28.630Z,101649.19
2022-12-18T05:32:56.811Z,101650.91
2022-12-18T05:35:25.015Z,101647.53
2022-12-18T05:37:54.514Z,101652.63
2022-12-18T05:40:22.615Z,101662.06
2022-12-18T05:42:50.715Z,101667.28
2022-12-18T05:45:18.901Z,101668.06
2022-12-18T05:47:47.014Z,101668.06
2022-12-18T05:50:15.281Z,101679.28
2022-12-18T05:52:43.428Z,101678.31
2022-12-18T05:55:12.886Z,101677.41
2022-12-18T05:57:40.994Z,101679.69
2022-12-18T06:00:10.602Z,101678.75
2022-12-18T06:02:38.826Z,101677.91
2022-12-18T06:05:07.880Z,101680.78
2022-12-18T06:07:35.938Z,101685.78
2022-12-18T06:10:04.097Z,101690.72
2022-12-18T06:12:34.594Z,101691.44
2022-12-18T06:15:02.768Z,101691.44
2022-12-18T06:17:31.459Z,101686.47
2022-12-18T06:20:00.012Z,101687.72
2022-12-18T06:22:28.114Z,101695.22
2022-12-18T06:24:56.259Z,101702.03
2022-12-18T06:27:24.359Z,101703.59
2022-12-18T06:29:53.833Z,101712.13
2022-12-18T06:32:22.114Z,101725.69
2022-12-18T06:34:50.227Z,101726.53
2022-12-18T06:37:18.399Z,101717.09
2022-12-18T06:39:46.526Z,101734.19
2022-12-18T06:42:14.703Z,101727.22
2022-12-18T06:44:42.784Z,101740.06
2022-12-18T06:47:12.838Z,101739.38
2022-12-18T06:49:40.940Z,101736.06
2022-12-18T06:52:09.006Z,101741.25
2022-12-18T06:54:37.210Z,101748.16
2022-12-18T06:57:05.833Z,101743.78
2022-12-18T06:59:33.957Z,101753.59
2022-12-18T07:02:02.081Z,101767.72
2022-12-18T07:04:32.600Z,101767.28
2022-12-18T07:07:00.651Z,101770.22
2022-12-18T07:09:31.952Z,101770.72
2022-12-18T07:12:00.092Z,101774.63
2022-12-18T07:14:28.226Z,101778.47
2022-12-18T07:16:56.753Z,101777.09
2022-12-18T07:19:26.172Z,101780.16
2022-12-18T07:21:55.734Z,101799.44
2022-12-18T07:24:23.823Z,101796.28
2022-12-18T07:26:51.938Z,101798.25
2022-12-18T07:29:20.035Z,101804.59
2022-12-18T07:31:48.186Z,101816.88
2022-12-18T07:34:17.226Z,101817.09
2022-12-18T07:36:45.491Z,101819.16
2022-12-18T07:39:15.094Z,101817.66
2022-12-18T07:41:47.586Z,101818.88
2022-12-18T07:44:15.937Z,101825.00
2022-12-18T07:46:44.128Z,101828.75
2022-12-18T07:49:12.221Z,101830.66
2022-12-18T07:51:40.294Z,101830.81
2022-12-18T07:54:08.378Z,101836.09
2022-12-18T07:56:37.832Z,101845.72
2022-12-18T07:59:05.921Z,101851.06
2022-12-18T08:01:34.073Z,101852.31
2022-12-18T08:04:02.267Z,101860.25
2022-12-18T08:06:30.353Z,101863.91
2022-12-18T08:08:58.729Z,101858.22
2022-12-18T08:11:28.501Z,101867.84
2022-12-18T08:13:58.468Z,101862.25
2022-12-18T08:16:26.786Z,101867.72
2022-12-18T08:18:55.876Z,101867.13
2022-12-18T08:21:26.073Z,101870.00
2022-12-18T08:23:55.744Z,101866.69
2022-12-18T08:26:24.502Z,101868.56
2022-12-18T08:28:53.163Z,101871.34
2022-12-18T08:31:23.979Z,101874.25
2022-12-18T08:33:54.043Z,101877.22
2022-12-18T08:36:24.020Z,101879.31
2022-12-18T08:38:53.023Z,101877.13
2022-12-18T08:41:21.260Z,101878.41
2022-12-18T08:44:07.056Z,101878.78
2022-12-18T08:46:38.840Z,101880.97
2022-12-18T08:49:08.007Z,101882.13
2022-12-18T08:51:37.040Z,101880.75
2022-12-18T08:54:06.643Z,101886.19
2022-12-18T08:56:35.253Z,101886.41
2022-12-18T08:59:03.861Z,101888.28
2022-12-18T09:01:32.410Z,101890.16
2022-12-18T09:04:03.179Z,101899.97
2022-12-18T09:06:31.678Z,101905.44
2022-12-18T09:08:59.917Z,101911.63
2022-12-18T09:11:29.840Z,101912.31
2022-12-18T09:13:59.293Z,101914.69
2022-12-18T09:16:32.389Z,101914.00
2022-12-18T09:19:02.863Z,101914.41
2022-12-18T09:21:33.944Z,101907.78
2022-12-18T09:24:04.246Z,101898.69
2022-12-18T09:26:33.766Z,101902.41
2022-12-18T09:29:01.943Z,101902.69
2022-12-18T09:31:30.097Z,101906.34
2022-12-18T09:33:58.774Z,101903.03
2022-12-18T09:36:28.252Z,101900.66
2022-12-18T09:38:56.564Z,101902.69
2022-12-18T09:41:43.696Z,101894.22
2022-12-18T09:44:22.240Z,101902.09
2022-12-18T09:46:58.003Z,101907.25
2022-12-18T09:49:31.445Z,101898.88
2022-12-18T09:52:06.478Z,101901.59
2022-12-18T09:54:38.583Z,101905.44
2022-12-18T09:57:07.286Z,101904.78
2022-12-18T09:59:40.262Z,101902.47
2022-12-18T10:02:18.239Z,101905.19
2022-12-18T10:04:55.683Z,101906.97
2022-12-18T10:07:33.133Z,101906.22
2022-12-18T10:10:06.646Z,101902.81
2022-12-18T10:12:44.661Z,101896.09
2022-12-18T10:15:21.724Z,101896.16
2022-12-18T10:17:56.726Z,101907.53
2022-12-18T10:20:32.213Z,101895.34
2022-12-18T10:23:10.495Z,101897.94
2022-12-18T10:25:49.785Z,101897.22
2022-12-18T10:28:20.525Z,101888.75
2022-12-18T10:30:48.978Z,101888.69
2022-12-18T10:33:20.152Z,101884.50
2022-12-18T10:35:51.130Z,101884.66
2022-12-18T10:38:29.389Z,101892.53
2022-12-18T10:41:00.562Z,101890.78
2022-12-18T10:43:31.189Z,101894.38
2022-12-18T10:46:16.019Z,101892.69
2022-12-18T10:48:54.045Z,101889.41
2022-12-18T10:51:25.307Z,101882.63
2022-12-18T10:54:00.095Z,101886.19
2022-12-18T10:56:31.175Z,101890.66
2022-12-18T10:59:02.195Z,101886.38
2022-12-18T11:01:33.448Z,101886.56
2022-12-18T11:04:03.703Z,101879.72
2022-12-18T11:06:36.399Z,101871.25
2022-12-18T11:09:13.286Z,101873.91
2022-12-18T11:11:43.414Z,101867.84
2022-12-18T11:14:20.315Z,101867.03
2022-12-18T11:17:23.687Z,101860.88
2022-12-18T11:19:41.274Z,101865.34
2022-12-18T11:22:22.471Z,101850.53
2022-12-18T11:25:30.113Z,101854.19
2022-12-18T11:27:51.756Z,101868.25
2022-12-18T11:30:26.251Z,101870.84
2022-12-18T11:33:02.251Z,101875.19
2022-12-18T11:35:42.171Z,101863.91
2022-12-18T11:38:20.964Z,101862.13
2022-12-18T11:40:57.976Z,101855.25
2022-12-18T11:43:30.973Z,101850.97
2022-12-18T11:46:04.995Z,101861.41
2022-12-18T11:48:36.404Z,101859.69
2022-12-18T11:51:11.031Z,101851.94
2022-12-18T11:53:41.082Z,101845.06
2022-12-18T11:56:33.218Z,101853.72
2022-12-18T11:59:11.321Z,101849.44
2022-12-18T12:01:50.575Z,101841.66
2022-12-18T12:04:50.401Z,101845.97
2022-12-18T12:07:33.456Z,101845.16
2022-12-18T12:10:06.819Z,101843.56
2022-12-18T12:12:49.301Z,101844.41
2022-12-18T12:15:31.089Z,101844.44
2022-12-18T12:18:11.499Z,101842.56
2022-12-18T12:20:49.693Z,101846.91
2022-12-18T12:23:27.911Z,101826.88
2022-12-18T12:26:03.165Z,101846.03
2022-12-18T12:28:55.031Z,101841.72
2022-12-18T12:31:45.568Z,101839.09
2022-12-18T12:34:20.298Z,101846.09
2022-12-18T12:37:03.552Z,101843.38
2022-12-18T12:39:35.745Z,101842.50
2022-12-18T12:42:24.037Z,101843.44
2022-12-18T12:44:57.936Z,101846.09
2022-12-18T12:47:30.025Z,101853.00
2022-12-18T12:50:00.474Z,101858.22
2022-12-18T12:52:37.071Z,101863.41
2022-12-18T12:55:13.046Z,101869.47
2022-12-18T12:57:47.665Z,101872.06
2022-12-18T13:00:20.736Z,101882.47
2022-12-18T13:03:01.949Z,101874.69
2022-12-18T13:05:36.499Z,101875.72
2022-12-18T13:08:08.347Z,101874.81
2022-12-18T13:10:38.135Z,101880.03
2022-12-18T13:13:09.017Z,101878.28
2022-12-18T13:15:44.298Z,101882.47
2022-12-18T13:18:21.032Z,101889.41
2022-12-18T13:20:55.228Z,101885.03
2022-12-18T13:23:37.589Z,101884.97
2022-12-18T13:26:32.672Z,101891.84
2022-12-18T13:29:03.088Z,101892.72
2022-12-18T13:32:01.883Z,101897.97
2022-12-18T13:34:32.681Z,101895.22
2022-12-18T13:37:34.651Z,101894.28
2022-12-18T13:40:03.025Z,101902.88
2022-12-18T13:43:06.163Z,101895.84
2022-12-18T13:45:41.583Z,101899.25
2022-12-18T13:48:24.769Z,101899.16
2022-12-18T13:50:59.980Z,101909.47
2022-12-18T13:53:32.379Z,101907.72
2022-12-18T13:56:01.008Z,101916.38
2022-12-18T13:58:29.183Z,101913.66
2022-12-18T14:00:57.818Z,101907.47
2022-12-18T14:03:29.426Z,101915.28
2022-12-18T14:06:04.335Z,101916.06
2022-12-18T14:08:39.609Z,101924.59
2022-12-18T14:11:09.409Z,101922.72
2022-12-18T14:13:43.603Z,101922.53
2022-12-18T14:16:17.585Z,101921.53
2022-12-18T14:18:50.469Z,101922.22
2022-12-18T14:21:20.820Z,101928.34
2022-12-18T14:23:49.041Z,101926.53
2022-12-18T14:26:30.102Z,101921.13
2022-12-18T14:28:59.776Z,101926.97
2022-12-18T14:31:29.948Z,101934.50
2022-12-18T14:33:59.868Z,101929.13
2022-12-18T14:36:30.479Z,101939.31
2022-12-18T14:38:59.573Z,101937.34
2022-12-18T14:41:28.908Z,101944.94
2022-12-18T14:43:57.767Z,101939.66
2022-12-18T14:46:34.122Z,101948.09
2022-12-18T14:49:06.930Z,101951.41
2022-12-18T14:51:36.804Z,101959.94
2022-12-18T14:54:09.709Z,101966.78
2022-12-18T14:56:45.170Z,101970.13
2022-12-18T14:59:23.725Z,101969.97
2022-12-18T15:02:01.957Z,101967.94
2022-12-18T15:04:41.721Z,101972.09
2022-12-18T15:07:17.894Z,101972.72
2022-12-18T15:10:05.408Z,101972.53
2022-12-18T15:12:38.675Z,101981.06
2022-12-18T15:15:29.206Z,101980.97
2022-12-18T15:18:01.359Z,101992.97
2022-12-18T15:20:35.609Z,101992.72
2022-12-18T15:23:05.175Z,102007.13
2022-12-18T15:25:38.200Z,102000.78
2022-12-18T15:28:22.700Z,101999.81
2022-12-18T15:31:07.104Z,102006.59
2022-12-18T15:33:38.902Z,102012.69
2022-12-18T15:36:13.289Z,102005.41
2022-12-18T15:38:42.281Z,102018.19
2022-12-18T15:41:18.934Z,102025.78
2022-12-18T15:43:53.322Z,102016.97
2022-12-18T15:46:26.761Z,102027.41
2022-12-18T15:49:02.109Z,102030.03
2022-12-18T15:51:37.733Z,102033.78
2022-12-18T15:54:09.264Z,102030.22
2022-12-18T15:56:58.572Z,102040.31
2022-12-18T15:59:28.898Z,102038.34
2022-12-18T16:01:59.377Z,102036.38
2022-12-18T16:04:30.018Z,102047.38
2022-12-18T16:07:24.610Z,102053.28
2022-12-18T16:09:51.095Z,102054.78
2022-12-18T16:12:23.343Z,102051.22
2022-12-18T16:14:52.820Z,102055.47
2022-12-18T16:17:23.152Z,102059.41
2022-12-18T16:19:52.907Z,102062.81
2022-12-18T16:22:28.386Z,102062.72
2022-12-18T16:25:00.747Z,102073.03
2022-12-18T16:27:30.584Z,102071.91
2022-12-18T16:30:03.117Z,102069.72
2022-12-18T16:32:34.400Z,102076.44
2022-12-18T16:35:03.720Z,102077.09
2022-12-18T16:37:34.763Z,102076.31
2022-12-18T16:40:04.542Z,102073.22
2022-12-18T16:42:34.124Z,102077.34
2022-12-18T16:45:03.595Z,102087.22
2022-12-18T16:47:32.873Z,102092.13
2022-12-18T16:50:02.487Z,102091.94
2022-12-18T16:52:34.485Z,102095.25
2022-12-18T16:55:04.522Z,102094.91
2022-12-18T16:57:34.535Z,102093.25
2022-12-18T17:00:05.860Z,102096.06
2022-12-18T17:02:36.534Z,102094.31
2022-12-18T17:05:07.681Z,102092.50
2022-12-18T17:07:38.484Z,102082.91
2022-12-18T17:10:11.515Z,102085.31
2022-12-18T17:12:41.102Z,102083.44
2022-12-18T17:15:12.576Z,102080.88
2022-12-18T17:17:41.907Z,102080.88
2022-12-18T17:20:13.328Z,102081.59
2022-12-18T17:22:44.351Z,102070.50
2022-12-18T17:25:15.266Z,102079.72
2022-12-18T17:27:44.728Z,102079.56
2022-12-18T17:30:16.095Z,102071.78
2022-12-18T17:32:45.504Z,102074.28
2022-12-18T17:35:15.898Z,102077.38
2022-12-18T17:37:46.324Z,102084.59
2022-12-18T17:40:16.144Z,102094.16
2022-12-18T17:42:45.890Z,102094.03
2022-12-18T17:45:16.533Z,102095.69
2022-12-18T17:47:46.614Z,102096.78
2022-12-18T17:50:17.631Z,102105.94
2022-12-18T17:52:48.165Z,102104.16
2022-12-18T17:55:18.038Z,102101.34
2022-12-18T17:57:56.192Z,102085.75
2022-12-18T18:00:27.011Z,102098.31
2022-12-18T18:02:57.032Z,102093.19
2022-12-18T18:05:27.128Z,102093.03
2022-12-18T18:08:00.481Z,102094.91
2022-12-18T18:10:30.611Z,102095.78
2022-12-18T18:13:18.925Z,102098.63
2022-12-18T18:15:57.774Z,102091.50
2022-12-18T18:18:27.330Z,102105.28
2022-12-18T18:20:57.560Z,102100.88
2022-12-18T18:23:31.795Z,102104.03
2022-12-18T18:26:04.739Z,102102.97
2022-12-18T18:28:33.964Z,102106.09
2022-12-18T18:31:07.668Z,102096.66
2022-12-18T18:33:38.099Z,102104.03
2022-12-18T18:36:11.971Z,102110.63
2022-12-18T18:38:48.181Z,102116.44
2022-12-18T18:41:22.416Z,102123.91
2022-12-18T18:43:53.177Z,102128.00
2022-12-18T18:46:22.897Z,102132.97
2022-12-18T18:48:55.512Z,102121.97
2022-12-18T18:51:27.789Z,102129.69
2022-12-18T18:54:02.792Z,102124.53
2022-12-18T18:59:29.697Z,102127.16
2022-12-18T19:02:04.282Z,102127.28
2022-12-18T19:04:34.350Z,102128.94
2022-12-18T19:07:03.515Z,102130.69
2022-12-18T19:09:36.549Z,102134.88
2022-12-18T19:12:23.603Z,102128.63
2022-12-18T19:14:55.391Z,102138.84
2022-12-18T19:17:29.745Z,102142.16
2022-12-18T19:20:02.038Z,102151.63
2022-12-18T19:22:32.038Z,102158.84
2022-12-18T19:25:03.407Z,102154.19
2022-12-18T19:27:32.198Z,102149.66
2022-12-18T19:30:02.508Z,102158.81
2022-12-18T19:32:32.079Z,102163.09
2022-12-18T19:35:03.117Z,102165.50
2022-12-18T19:37:33.261Z,102168.06
2022-12-18T19:40:07.944Z,102168.84
2022-12-18T19:42:43.056Z,102167.38
2022-12-18T19:45:13.568Z,102179.41
2022-12-18T19:47:43.902Z,102172.06
2022-12-18T19:50:13.212Z,102172.53
2022-12-18T19:52:43.012Z,102176.47
2022-12-18T19:55:14.397Z,102183.03
2022-12-18T19:57:44.849Z,102184.34
2022-12-18T20:00:18.623Z,102187.59
2022-12-18T20:02:48.474Z,102183.94
2022-12-18T20:05:22.931Z,102174.59
2022-12-18T20:07:52.886Z,102179.88
2022-12-18T20:10:23.733Z,102185.16
2022-12-18T20:12:53.897Z,102191.03
2022-12-18T20:15:23.691Z,102193.81
2022-12-18T20:17:54.002Z,102187.78
2022-12-18T20:20:26.938Z,102201.63
2022-12-18T20:22:56.407Z,102209.44
2022-12-18T20:25:27.722Z,102209.53
2022-12-18T20:27:56.456Z,102212.00
2022-12-18T20:30:25.693Z,102214.59
2022-12-18T20:32:55.660Z,102214.69
2022-12-18T20:35:28.777Z,102203.97
2022-12-18T20:37:59.091Z,102213.53
2022-12-18T20:40:31.665Z,102212.69
2022-12-18T20:43:02.581Z,102214.41
2022-12-18T20:45:31.913Z,102216.03
2022-12-18T20:48:02.420Z,102217.78
2022-12-18T20:50:31.581Z,102216.16
2022-12-18T20:53:01.232Z,102222.50
2022-12-18T20:55:32.068Z,102226.03
2022-12-18T20:58:02.735Z,102217.34
2022-12-18T21:00:31.800Z,102225.91
2022-12-18T21:03:00.561Z,102234.44
2022-12-18T21:05:31.325Z,102228.63
2022-12-18T21:08:00.367Z,102230.22
2022-12-18T21:10:29.137Z,102237.00
2022-12-18T21:13:02.151Z,102236.03
2022-12-18T21:15:32.800Z,102244.78
2022-12-18T21:18:01.193Z,102236.47
2022-12-18T21:20:29.939Z,102240.91
2022-12-18T21:23:03.436Z,102237.59
2022-12-18T21:25:44.224Z,102228.47
2022-12-18T21:28:15.354Z,102227.88
2022-12-18T21:30:43.554Z,102223.38
2022-12-18T21:33:11.679Z,102230.66
2022-12-18T21:35:39.867Z,102224.56
2022-12-18T21:38:08.138Z,102215.16
2022-12-18T21:40:36.206Z,102227.53
2022-12-18T21:43:21.809Z,102212.31
2022-12-18T21:45:51.493Z,102206.66
2022-12-18T21:48:19.608Z,102215.84
2022-12-18T21:50:47.811Z,102205.53
2022-12-18T21:53:15.915Z,102214.78
2022-12-18T21:55:44.023Z,102221.13
2022-12-18T21:58:12.104Z,102218.97
2022-12-18T22:00:43.394Z,102214.50
2022-12-18T22:03:18.592Z,102212.41
2022-12-18T22:05:47.526Z,102213.50
2022-12-18T22:08:21.415Z,102217.97
2022-12-18T22:10:49.533Z,102205.78
2022-12-18T22:13:17.641Z,102213.28
2022-12-18T22:15:45.742Z,102210.69
2022-12-18T22:18:15.486Z,102215.25
2022-12-18T22:20:43.560Z,102205.41
2022-12-18T22:23:13.148Z,102209.91
2022-12-18T22:25:41.292Z,102208.38
2022-12-18T22:28:26.942Z,102215.50
2022-12-18T22:30:59.669Z,102222.41
2022-12-18T22:33:29.767Z,102216.41
2022-12-18T22:35:58.249Z,102214.72
2022-12-18T22:38:26.842Z,102211.34
2022-12-18T22:40:56.382Z,102222.34
2022-12-18T22:43:24.585Z,102222.22
2022-12-18T22:45:52.665Z,102225.78
2022-12-18T22:48:20.825Z,102214.72
2022-12-18T22:50:50.347Z,102220.03
2022-12-18T22:53:21.549Z,102223.34
2022-12-18T22:55:49.662Z,102218.81
2022-12-18T22:58:17.723Z,102228.94
2022-12-18T23:00:45.858Z,102233.88
2022-12-18T23:03:14.074Z,102233.59
2022-12-18T23:05:42.283Z,102228.53
2022-12-18T23:08:11.797Z,102237.97
2022-12-18T23:10:40.549Z,102227.72
2022-12-18T23:13:08.755Z,102232.72
2022-12-18T23:15:42.040Z,102234.59
2022-12-18T23:18:10.264Z,102237.06
2022-12-18T23:20:40.660Z,102233.69
2022-12-18T23:23:11.118Z,102236.25
2022-12-18T23:25:41.529Z,102235.31
2022-12-18T23:28:09.795Z,102235.16
2022-12-18T23:30:38.009Z,102233.41
2022-12-18T23:33:06.137Z,102229.97
2022-12-18T23:35:34.247Z,102228.28
2022-12-18T23:38:02.323Z,102218.47
2022-12-18T23:40:31.857Z,102231.03
2022-12-18T23:43:00.508Z,102234.06
2022-12-18T23:45:28.622Z,102223.56
2022-12-18T23:47:56.707Z,102231.31
2022-12-18T23:50:29.663Z,102228.25
2022-12-18T23:53:05.014Z,102229.03
2022-12-18T23:55:40.575Z,102241.13
2022-12-18T23:58:10.275Z,102235.06
